Time;durP1;ratioP1;P1;durP2;ratioP2;P2;SDS_P1;SDS_P2;PMS_P1;PMS_P2;Temp;Humidity;BMP_temperature;BMP_pressure;BME280_temperature;BME280_humidity;BME280_pressure;Samples;Min_cycle;Max_cycle;Signal;HPM_P1;HPM_P2
2022/05/15 00:02:33;;;;;;;7.47;3.28;;;;;;;23.17;38.88;101963.22;5032521;28;20035;-63
2022/05/15 00:04:59;;;;;;;6.65;3.00;;;;;;;23.16;38.81;101958.88;5031027;28;20025;-64
2022/05/15 00:07:24;;;;;;;7.23;2.90;;;;;;;23.15;39.11;101962.50;5032466;28;20037;-64
2022/05/15 00:09:49;;;;;;;6.78;3.15;;;;;;;23.14;38.73;101960.81;5034136;28;20710;-63
2022/05/15 00:12:20;;;;;;;7.20;3.50;;;;;;;23.12;39.35;101960.94;5035135;28;20025;-64
2022/05/15 00:14:46;;;;;;;8.52;3.08;;;;;;;23.12;39.16;101957.47;5036034;28;20075;-63
2022/05/15 00:17:12;;;;;;;7.00;3.20;;;;;;;23.12;38.77;101960.94;5035611;28;20109;-64
2022/05/15 00:19:40;;;;;;;6.65;3.53;;;;;;;23.11;39.15;101958.41;5034793;28;20124;-63
2022/05/15 00:22:08;;;;;;;7.13;3.25;;;;;;;23.11;39.13;101955.75;5035661;28;20022;-63
2022/05/15 00:24:37;;;;;;;6.88;3.00;;;;;;;23.10;38.82;101946.94;5035789;28;20152;-63
2022/05/15 00:27:03;;;;;;;7.78;3.00;;;;;;;23.08;39.17;101943.59;5034491;28;20390;-63
2022/05/15 00:29:30;;;;;;;8.38;3.35;;;;;;;23.07;38.89;101941.88;5035742;28;20025;-63
2022/05/15 00:31:55;;;;;;;7.65;3.17;;;;;;;23.07;39.15;101947.19;5035035;28;20143;-64
2022/05/15 00:34:21;;;;;;;6.95;3.00;;;;;;;23.06;39.09;101948.16;5034999;28;20497;-64
2022/05/15 00:36:46;;;;;;;7.15;3.40;;;;;;;23.06;38.84;101947.31;5035640;28;20029;-64
2022/05/15 00:39:12;;;;;;;8.68;3.63;;;;;;;23.05;38.71;101953.59;5034977;28;20037;-64
2022/05/15 00:41:38;;;;;;;6.82;3.00;;;;;;;23.04;38.94;101946.59;5034747;28;20032;-63
2022/05/15 00:44:05;;;;;;;7.28;3.35;;;;;;;23.04;38.79;101939.47;5035037;28;20469;-63
2022/05/15 00:46:33;;;;;;;7.07;3.30;;;;;;;23.02;38.79;101941.41;5034506;28;20022;-63
2022/05/15 00:49:02;;;;;;;6.90;2.90;;;;;;;23.02;39.06;101941.41;5034985;28;20458;-64
2022/05/15 00:51:42;;;;;;;7.28;3.47;;;;;;;23.01;39.07;101945.03;5035344;28;20033;-63
2022/05/15 00:54:29;;;;;;;6.70;3.08;;;;;;;23.01;38.87;101937.91;5034150;28;20021;-63
2022/05/15 00:57:00;;;;;;;7.35;3.67;;;;;;;23.00;38.67;101938.91;5034904;28;20524;-64
2022/05/15 00:59:29;;;;;;;8.88;3.20;;;;;;;22.99;39.03;101931.88;5035431;28;20128;-63
2022/05/15 01:01:54;;;;;;;6.95;3.05;;;;;;;22.99;38.95;101936.38;5033917;28;20025;-63
2022/05/15 01:04:19;;;;;;;7.57;3.10;;;;;;;22.99;38.92;101933.72;5035321;28;20038;-63
2022/05/15 01:06:45;;;;;;;6.63;2.83;;;;;;;22.98;38.56;101934.66;5034921;28;20021;-63
2022/05/15 01:09:12;;;;;;;7.85;3.10;;;;;;;22.98;38.59;101945.31;5033720;28;20295;-63
2022/05/15 01:11:39;;;;;;;6.13;3.08;;;;;;;22.97;38.51;101938.28;5034723;28;20087;-63
2022/05/15 01:14:08;;;;;;;6.35;2.83;;;;;;;22.96;38.77;101940.13;5034727;28;20045;-63
2022/05/15 01:16:34;;;;;;;8.18;3.17;;;;;;;22.96;38.85;101941.94;5034114;28;20116;-63
2022/05/15 01:19:00;;;;;;;6.50;2.67;;;;;;;22.94;38.53;101943.88;5034286;28;20075;-63
2022/05/15 01:21:28;;;;;;;8.02;2.90;;;;;;;22.94;38.82;101943.88;5034202;28;20053;-64
2022/05/15 01:23:53;;;;;;;7.22;2.85;;;;;;;22.93;38.59;101943.03;5033989;28;20023;-63
2022/05/15 01:26:23;;;;;;;7.47;3.38;;;;;;;22.93;38.44;101945.69;5034504;28;20377;-63
2022/05/15 01:28:49;;;;;;;7.25;3.20;;;;;;;22.93;38.38;101943.03;5033346;28;20025;-63
2022/05/15 01:31:15;;;;;;;6.45;2.67;;;;;;;22.91;38.57;101939.66;5034599;28;20040;-63
2022/05/15 01:33:41;;;;;;;8.85;3.08;;;;;;;22.90;38.49;101945.94;5034541;28;20021;-63
2022/05/15 01:36:07;;;;;;;8.32;2.85;;;;;;;22.90;38.79;101942.47;5033292;28;20036;-63
2022/05/15 01:38:33;;;;;;;7.72;3.30;;;;;;;22.90;38.62;101942.47;5034462;28;20025;-63
2022/05/15 01:41:01;;;;;;;6.75;2.83;;;;;;;22.90;38.33;101940.63;5033790;28;20025;-64
2022/05/15 01:43:27;;;;;;;6.65;3.00;;;;;;;22.89;38.69;101941.63;5033575;28;20026;-64
2022/05/15 01:45:52;;;;;;;7.30;2.95;;;;;;;22.89;38.29;101938.09;5034014;28;20113;-63
2022/05/15 01:48:17;;;;;;;7.50;3.03;;;;;;;22.87;38.70;101943.53;5034241;28;20516;-62
2022/05/15 01:50:42;;;;;;;8.25;3.15;;;;;;;22.88;38.49;101949.72;5033392;28;20630;-63
2022/05/15 01:53:08;;;;;;;8.40;3.00;;;;;;;22.88;38.36;101947.06;5033954;28;20033;-63
2022/05/15 01:55:33;;;;;;;7.75;3.20;;;;;;;22.88;38.61;101947.06;5034118;28;20805;-63
2022/05/15 01:57:59;;;;;;;7.15;2.92;;;;;;;22.86;38.43;101947.19;5032873;28;20034;-62
2022/05/15 02:00:26;;;;;;;7.53;3.00;;;;;;;22.86;38.53;101938.34;5034004;28;20026;-62
2022/05/15 02:02:51;;;;;;;6.18;2.90;;;;;;;22.85;38.55;101934.88;5033665;28;20037;-63
2022/05/15 02:05:19;;;;;;;7.10;2.85;;;;;;;22.86;38.26;101930.38;5033133;28;20461;-64
2022/05/15 02:07:44;;;;;;;6.85;2.88;;;;;;;22.85;38.23;101934.03;5033677;28;20125;-64
2022/05/15 02:10:11;;;;;;;6.93;2.97;;;;;;;22.84;38.58;101933.16;5033622;28;20101;-63
2022/05/15 02:12:36;;;;;;;7.05;2.58;;;;;;;22.82;38.38;101930.66;5032760;28;20017;-63
2022/05/15 02:15:03;;;;;;;7.10;2.85;;;;;;;22.82;38.59;101925.31;5033459;28;20080;-63
2022/05/15 02:17:29;;;;;;;6.75;2.97;;;;;;;22.82;38.36;101922.66;5033360;28;20066;-63
2022/05/15 02:19:54;;;;;;;8.02;2.90;;;;;;;22.79;38.26;101920.28;5032570;28;20121;-63
2022/05/15 02:22:19;;;;;;;7.78;2.83;;;;;;;22.79;38.18;101916.78;5033500;28;20119;-63
2022/05/15 02:24:45;;;;;;;7.22;3.28;;;;;;;22.80;38.44;101923.78;5033077;28;20044;-63
2022/05/15 02:27:14;;;;;;;7.72;3.10;;;;;;;22.78;38.16;101921.25;5032673;28;20030;-63
2022/05/15 02:29:40;;;;;;;7.70;2.90;;;;;;;22.78;38.58;101921.25;5033453;28;20087;-63
2022/05/15 02:32:05;;;;;;;6.20;2.47;;;;;;;22.77;38.15;101926.72;5031568;28;20416;-62
2022/05/15 02:34:30;;;;;;;7.45;2.80;;;;;;;22.77;38.38;101926.72;5033117;28;20033;-62
2022/05/15 02:36:56;;;;;;;6.90;2.60;;;;;;;22.76;38.10;101919.69;5032922;28;20036;-63
2022/05/15 02:39:21;;;;;;;7.25;3.17;;;;;;;22.76;38.29;101922.34;5032365;28;20128;-63
2022/05/15 02:41:46;;;;;;;5.32;2.60;;;;;;;22.75;38.02;101920.69;5033134;28;20112;-63
2022/05/15 02:44:12;;;;;;;9.07;4.40;;;;;;;22.74;38.54;101913.69;5032768;28;20080;-64
2022/05/15 02:46:37;;;;;;;6.22;2.80;;;;;;;22.74;38.11;101919.81;5032294;28;20306;-63
2022/05/15 02:51:46;;;;;;;7.03;2.70;;;;;;;22.74;38.36;101913.69;5033256;28;20623;-63
2022/05/15 02:54:11;;;;;;;7.20;2.63;;;;;;;22.73;38.14;101915.50;5032103;28;20025;-62
2022/05/15 02:56:37;;;;;;;9.50;2.87;;;;;;;22.71;38.45;101912.09;5033079;28;20037;-62
2022/05/15 02:59:03;;;;;;;6.93;2.67;;;;;;;22.71;38.38;101909.44;5032770;28;20614;-63
2022/05/15 03:01:28;;;;;;;6.07;2.80;;;;;;;22.70;38.22;101905.13;5032163;28;20033;-63
2022/05/15 03:03:54;;;;;;;7.60;2.95;;;;;;;22.70;38.41;101902.47;5032622;28;20017;-63
2022/05/15 03:06:19;;;;;;;7.80;2.80;;;;;;;22.68;38.45;101899.09;5032687;28;20025;-63
2022/05/15 03:08:49;;;;;;;7.38;2.80;;;;;;;22.69;38.25;101892.81;5032139;28;20087;-63
2022/05/15 03:11:15;;;;;;;6.53;2.80;;;;;;;22.69;38.17;101899.94;5032951;28;20100;-64
2022/05/15 03:13:50;;;;;;;7.75;2.75;;;;;;;22.68;38.39;101900.91;5032576;28;20136;-64
2022/05/15 03:16:18;;;;;;;7.30;3.00;;;;;;;22.68;37.91;101903.56;5032137;28;20026;-64
2022/05/15 03:18:49;;;;;;;7.50;3.10;;;;;;;22.67;38.14;101896.56;5032355;28;20045;-64
2022/05/15 03:21:28;;;;;;;7.07;3.05;;;;;;;22.67;37.94;101891.25;5031944;28;20036;-64
2022/05/15 03:23:58;;;;;;;7.38;3.15;;;;;;;22.66;38.38;101895.72;5032415;28;20111;-64
2022/05/15 03:26:25;;;;;;;7.60;2.78;;;;;;;22.64;38.15;101900.31;5032752;28;20021;-63
2022/05/15 03:28:50;;;;;;;7.38;2.75;;;;;;;22.64;38.01;101898.50;5031360;28;20030;-62
2022/05/15 03:31:16;;;;;;;7.57;2.83;;;;;;;22.62;38.13;101892.47;5032505;28;20018;-62
2022/05/15 03:33:41;;;;;;;7.13;3.25;;;;;;;22.63;38.23;101895.97;5032438;28;20065;-63
2022/05/15 03:36:10;;;;;;;8.20;2.93;;;;;;;22.62;38.19;101894.28;5031645;28;20033;-63
2022/05/15 03:38:37;;;;;;;7.10;3.00;;;;;;;22.63;38.42;101895.97;5032318;28;20440;-63
2022/05/15 03:41:02;;;;;;;6.25;2.40;;;;;;;22.61;37.88;101892.63;5032170;28;20104;-63
2022/05/15 03:43:27;;;;;;;9.38;3.20;;;;;;;22.60;38.16;101899.72;5033189;28;20449;-63
2022/05/15 03:45:53;;;;;;;6.63;2.50;;;;;;;22.60;38.25;101893.56;5035991;28;20113;-63
2022/05/15 03:48:18;;;;;;;7.33;3.30;;;;;;;22.60;37.92;101893.56;5036178;28;20120;-63
2022/05/15 03:50:43;;;;;;;7.75;2.70;;;;;;;22.58;38.26;101893.69;5035740;28;20317;-63
2022/05/15 03:53:08;;;;;;;8.23;2.97;;;;;;;22.58;38.28;101895.53;5035973;28;20029;-63
2022/05/15 03:55:34;;;;;;;7.10;2.57;;;;;;;22.58;38.24;101893.69;5036339;28;20033;-63
2022/05/15 03:57:59;;;;;;;8.55;3.00;;;;;;;22.58;38.05;101890.22;5035135;28;20049;-63
2022/05/15 04:00:25;;;;;;;7.28;2.75;;;;;;;22.56;37.97;101887.69;5036140;28;20029;-63
2022/05/15 04:02:50;;;;;;;7.18;2.95;;;;;;;22.55;38.07;101888.66;5035842;28;20487;-64
2022/05/15 04:05:15;;;;;;;7.38;2.65;;;;;;;22.56;38.04;101894.81;5035492;28;20029;-64
2022/05/15 04:07:45;;;;;;;8.70;2.80;;;;;;;22.54;37.69;101891.44;5035913;28;20033;-64
2022/05/15 04:10:11;;;;;;;6.85;2.78;;;;;;;22.55;37.94;101895.78;5036666;28;20029;-62
2022/05/15 04:12:37;;;;;;;7.65;2.97;;;;;;;22.54;37.92;101900.25;5035690;28;20539;-62
2022/05/15 04:15:02;;;;;;;7.30;2.67;;;;;;;22.53;38.21;101903.88;5035720;28;20033;-62
2022/05/15 04:17:30;;;;;;;7.13;2.72;;;;;;;22.53;38.30;101909.19;5035453;28;20033;-62
2022/05/15 04:19:56;;;;;;;7.07;2.97;;;;;;;22.54;38.25;101916.19;5035433;28;20041;-62
2022/05/15 04:22:21;;;;;;;5.83;2.27;;;;;;;22.54;38.19;101907.38;5036013;28;20461;-62
2022/05/15 04:24:46;;;;;;;6.17;2.90;;;;;;;22.53;38.05;101911.84;5035051;28;20675;-62
2022/05/15 04:27:12;;;;;;;6.03;2.50;;;;;;;22.53;38.19;101906.53;5035420;28;20286;-62
2022/05/15 04:29:38;;;;;;;7.23;3.27;;;;;;;22.53;38.13;101908.34;5035497;28;20036;-62
2022/05/15 04:32:03;;;;;;;9.20;2.33;;;;;;;22.53;37.86;101911.00;5034650;28;20366;-62
2022/05/15 04:34:29;;;;;;;5.80;2.75;;;;;;;22.53;38.00;101900.38;5035548;28;20742;-62
2022/05/15 04:36:54;;;;;;;7.32;2.60;;;;;;;22.52;38.02;101904.00;5035373;28;20109;-63
2022/05/15 04:39:20;;;;;;;7.57;3.00;;;;;;;22.51;37.99;101905.81;5034689;28;20465;-64
2022/05/15 04:41:45;;;;;;;6.30;2.40;;;;;;;22.51;37.87;101899.66;5035420;28;20060;-64
2022/05/15 04:44:11;;;;;;;6.15;2.70;;;;;;;22.53;37.89;101905.69;5035051;28;20028;-64
2022/05/15 04:46:42;;;;;;;7.10;2.80;;;;;;;22.52;37.84;101906.66;5034743;28;20067;-64
2022/05/15 04:49:08;;;;;;;6.70;2.40;;;;;;;22.51;38.28;101899.66;5034986;28;20022;-64
2022/05/15 04:51:33;;;;;;;9.30;3.67;;;;;;;22.52;38.01;101898.69;5035207;28;20036;-64
2022/05/15 04:53:58;;;;;;;6.05;2.65;;;;;;;22.52;38.02;101896.03;5034199;28;20025;-64
2022/05/15 04:56:24;;;;;;;7.35;3.05;;;;;;;22.52;37.76;101901.34;5034376;28;20084;-63
2022/05/15 04:58:49;;;;;;;7.45;2.70;;;;;;;22.51;37.94;101895.22;5034616;28;20026;-63
2022/05/15 05:01:15;;;;;;;6.03;2.50;;;;;;;22.52;38.34;101904.00;5034566;28;20029;-63
2022/05/15 05:03:43;;;;;;;8.70;2.72;;;;;;;22.51;38.08;101895.22;5035071;28;20022;-63
2022/05/15 05:06:11;;;;;;;6.22;2.70;;;;;;;22.51;38.09;101900.50;5034444;28;20064;-63
2022/05/15 05:08:37;;;;;;;7.05;2.85;;;;;;;22.53;37.99;101906.53;5034299;28;20030;-63
2022/05/15 05:11:02;;;;;;;7.60;2.50;;;;;;;22.53;38.19;101909.19;5034633;28;20037;-63
2022/05/15 05:13:27;;;;;;;7.50;2.90;;;;;;;22.53;38.22;101908.34;5034529;28;20030;-63
2022/05/15 05:15:55;;;;;;;7.80;2.47;;;;;;;22.54;38.04;101912.69;5033959;28;20041;-63
2022/05/15 05:18:23;;;;;;;6.60;2.83;;;;;;;22.53;38.01;101909.19;5034742;28;20081;-63
2022/05/15 05:20:48;;;;;;;7.07;2.95;;;;;;;22.53;37.99;101917.16;5034025;28;20054;-63
2022/05/15 05:23:14;;;;;;;7.17;2.60;;;;;;;22.53;38.33;101905.69;5034748;28;20037;-63
2022/05/15 05:25:39;;;;;;;6.95;2.40;;;;;;;22.55;38.46;101912.56;5034526;28;20022;-63
2022/05/15 05:28:05;;;;;;;7.32;2.65;;;;;;;22.56;38.40;101908.09;5033645;28;20025;-63
2022/05/15 05:30:31;;;;;;;5.93;2.47;;;;;;;22.56;38.07;101910.75;5034703;28;20052;-63
2022/05/15 05:32:59;;;;;;;6.50;2.80;;;;;;;22.56;38.27;101908.09;5034444;28;20021;-63
2022/05/15 05:35:27;;;;;;;7.50;2.88;;;;;;;22.57;38.44;101904.47;5033726;28;20197;-63
2022/05/15 05:37:52;;;;;;;8.25;3.00;;;;;;;22.58;38.33;101908.81;5034098;28;20148;-63
2022/05/15 05:40:19;;;;;;;6.47;2.80;;;;;;;22.57;38.35;101905.31;5034312;28;20476;-63
2022/05/15 05:42:44;;;;;;;7.50;2.80;;;;;;;22.58;38.13;101906.16;5033619;28;20029;-63
2022/05/15 05:45:10;;;;;;;6.78;2.60;;;;;;;22.59;38.27;101907.84;5034172;28;20017;-63
2022/05/15 05:47:36;;;;;;;6.30;2.38;;;;;;;22.59;38.53;101910.50;5034214;28;20053;-63
2022/05/15 05:50:03;;;;;;;6.28;2.40;;;;;;;22.58;38.15;101901.66;5033098;28;20428;-63
2022/05/15 05:52:28;;;;;;;6.30;2.42;;;;;;;22.58;38.60;101912.31;5034037;28;20021;-63
2022/05/15 05:54:54;;;;;;;6.53;2.60;;;;;;;22.60;38.50;101912.16;5033568;28;20028;-63
2022/05/15 05:57:19;;;;;;;7.70;2.90;;;;;;;22.60;38.31;101913.00;5033344;28;20314;-62
2022/05/15 05:59:45;;;;;;;7.97;3.05;;;;;;;22.58;37.58;101906.16;5034155;28;20079;-64
2022/05/15 06:02:10;;;;;;;9.27;3.38;;;;;;;22.50;37.53;101906.78;5033531;28;20022;-63
2022/05/15 06:04:42;;;;;;;7.27;3.20;;;;;;;22.46;38.40;101913.31;5033389;28;20089;-62
2022/05/15 06:07:17;;;;;;;8.77;2.97;;;;;;;22.44;38.84;101905.47;5032587;28;20025;-63
2022/05/15 06:09:44;;;;;;;7.15;3.20;;;;;;;22.39;38.57;101906.84;5033337;28;20029;-63
2022/05/15 06:12:15;;;;;;;10.02;3.58;;;;;;;22.33;38.69;101902.88;5032786;28;20028;-65
2022/05/15 06:14:41;;;;;;;6.50;3.00;;;;;;;22.33;39.31;101908.19;5033751;28;20032;-61
2022/05/15 06:17:06;;;;;;;7.15;3.17;;;;;;;22.34;39.25;101906.38;5032418;28;20021;-64
2022/05/15 06:19:36;;;;;;;6.78;2.75;;;;;;;22.38;39.49;101905.16;5033388;28;20076;-64
2022/05/15 06:22:01;;;;;;;7.32;2.58;;;;;;;22.36;39.57;101905.28;5033522;28;20029;-65
2022/05/15 06:24:27;;;;;;;8.35;3.20;;;;;;;22.38;39.87;101898.03;5032916;28;20104;-65
2022/05/15 06:26:54;;;;;;;5.90;2.83;;;;;;;22.39;39.78;101905.03;5033418;28;20428;-64
2022/05/15 06:29:19;;;;;;;7.05;3.00;;;;;;;22.42;40.11;101909.25;5033937;28;20043;-62
2022/05/15 06:31:46;;;;;;;9.40;3.28;;;;;;;22.46;40.04;101903.56;5033902;28;20138;-62
2022/05/15 06:34:13;;;;;;;8.68;2.95;;;;;;;22.54;40.02;101899.41;5033296;28;20017;-64
2022/05/15 06:36:39;;;;;;;8.25;3.10;;;;;;;22.62;39.96;101902.25;5033296;28;20049;-62
2022/05/15 06:39:04;;;;;;;8.65;3.20;;;;;;;22.70;39.55;101899.81;5034493;28;20470;-64
2022/05/15 06:41:30;;;;;;;5.97;2.53;;;;;;;22.77;39.33;101898.31;5033308;28;20018;-62
2022/05/15 06:43:55;;;;;;;7.18;3.10;;;;;;;22.86;39.57;101898.50;5033037;28;20056;-63
2022/05/15 06:46:21;;;;;;;6.75;3.13;;;;;;;22.91;39.19;101898.97;5032548;28;20171;-64
2022/05/15 06:48:46;;;;;;;7.53;3.05;;;;;;;22.98;39.36;101910.75;5033085;28;20477;-62
2022/05/15 06:51:16;;;;;;;9.38;3.10;;;;;;;23.01;39.12;101902.50;5032448;28;20083;-63
2022/05/15 06:53:42;;;;;;;6.35;2.70;;;;;;;23.06;39.22;101904.78;5032696;28;20037;-64
2022/05/15 06:58:52;;;;;;;7.13;2.60;;;;;;;23.11;39.09;101902.59;5032693;28;20500;-64
2022/05/15 07:01:17;;;;;;;8.30;2.90;;;;;;;23.10;39.15;101909.72;5035901;28;20039;-64
2022/05/15 07:03:48;;;;;;;7.88;3.30;;;;;;;23.10;39.46;101904.41;5040395;28;20105;-64
2022/05/15 07:06:16;;;;;;;8.68;3.70;;;;;;;23.12;39.23;101902.44;5036270;28;20597;-61
2022/05/15 07:08:42;;;;;;;6.25;2.80;;;;;;;23.16;39.28;101911.88;5032904;28;20045;-62
2022/05/15 07:11:09;;;;;;;8.82;3.20;;;;;;;23.20;38.91;101908.94;5033070;28;20381;-65
2022/05/15 07:13:39;;;;;;;6.88;2.92;;;;;;;23.24;39.46;101913.00;5032026;28;20191;-63
2022/05/15 07:16:05;;;;;;;6.45;3.00;;;;;;;23.27;39.10;101910.91;5032417;28;20071;-65
2022/05/15 07:18:30;;;;;;;6.28;2.80;;;;;;;23.32;39.43;101915.84;5032177;28;20041;-64
2022/05/15 07:20:58;;;;;;;7.40;2.90;;;;;;;23.33;39.42;101912.22;5032058;28;20028;-66
2022/05/15 07:23:26;;;;;;;6.80;3.03;;;;;;;23.31;39.61;101914.16;5033476;28;20044;-65
2022/05/15 07:25:51;;;;;;;7.07;2.58;;;;;;;23.30;39.43;101915.97;5032668;28;20026;-66
2022/05/15 07:28:17;;;;;;;7.63;2.60;;;;;;;23.32;39.59;101910.50;5031748;28;20029;-66
2022/05/15 07:30:45;;;;;;;6.93;2.65;;;;;;;23.32;39.38;101911.38;5032759;28;20104;-65
2022/05/15 07:33:10;;;;;;;5.53;2.65;;;;;;;23.32;39.43;101908.72;5032238;28;20029;-63
2022/05/15 07:35:35;;;;;;;8.05;2.80;;;;;;;23.33;39.57;101907.72;5031951;28;20025;-64
2022/05/15 07:38:03;;;;;;;7.80;3.07;;;;;;;23.35;39.24;101907.59;5032350;28;20022;-63
2022/05/15 07:40:29;;;;;;;7.78;2.60;;;;;;;23.36;39.55;101910.13;5032419;28;20030;-62
2022/05/15 07:42:57;;;;;;;6.53;2.57;;;;;;;23.35;39.41;101899.63;5031722;28;20080;-62
2022/05/15 07:45:22;;;;;;;7.55;3.35;;;;;;;23.37;39.69;101900.34;5032344;28;20631;-64
2022/05/15 07:47:47;;;;;;;7.68;2.70;;;;;;;23.37;39.09;101900.34;5032067;28;20036;-65
2022/05/15 07:50:13;;;;;;;7.13;2.90;;;;;;;23.36;39.53;101899.47;5031747;28;20029;-62
2022/05/15 07:52:39;;;;;;;6.40;3.13;;;;;;;23.38;39.38;101904.66;5032544;28;20084;-63
2022/05/15 07:55:06;;;;;;;7.25;2.80;;;;;;;23.40;39.44;101899.22;5031905;28;20075;-66
2022/05/15 07:57:34;;;;;;;8.10;2.70;;;;;;;23.42;39.09;101906.09;5032195;28;20071;-63
2022/05/15 08:00:00;;;;;;;5.47;2.60;;;;;;;23.44;39.45;101900.63;5032539;28;20050;-63
2022/05/15 08:02:25;;;;;;;5.80;2.60;;;;;;;23.46;39.29;101896.84;5032406;28;20034;-64
2022/05/15 08:10:21;;;;;;;5.85;2.70;;;;;;;23.48;39.30;101888.72;5031992;28;20033;-63
2022/05/15 08:12:46;;;;;;;6.25;2.63;;;;;;;23.49;39.05;101893.09;5032798;28;20025;-65
2022/05/15 08:15:13;;;;;;;6.10;2.70;;;;;;;23.50;39.43;101894.78;5032558;28;20048;-64
2022/05/15 08:17:38;;;;;;;5.75;2.70;;;;;;;23.53;39.28;101889.19;5031782;28;20677;-63
2022/05/15 08:25:35;;;;;;;7.65;2.53;;;;;;;23.57;39.08;101876.47;5032139;28;20076;-64
2022/05/15 08:28:00;;;;;;;6.95;2.60;;;;;;;23.58;38.99;101870.16;5031793;28;20057;-65
2022/05/15 08:30:27;;;;;;;7.47;2.50;;;;;;;23.60;39.28;101870.88;5033983;28;20029;-63
2022/05/15 08:32:53;;;;;;;5.90;2.63;;;;;;;23.62;38.89;101863.56;5036499;28;20353;-61
2022/05/15 08:35:18;;;;;;;7.50;2.67;;;;;;;23.63;38.93;101868.75;5036248;28;20079;-61
2022/05/15 08:37:44;;;;;;;6.13;2.65;;;;;;;23.64;38.89;101862.47;5036428;28;20025;-63
2022/05/15 08:40:13;;;;;;;5.70;2.65;;;;;;;23.68;39.02;101855.88;5035940;28;20488;-63
2022/05/15 08:42:46;;;;;;;6.18;2.60;;;;;;;23.69;38.98;101857.56;5035960;28;20481;-63
2022/05/15 08:45:15;;;;;;;8.52;2.85;;;;;;;23.68;39.33;101855.88;5035138;28;20025;-63
2022/05/15 08:47:45;;;;;;;8.05;2.65;;;;;;;23.70;39.04;101855.75;5035212;28;20477;-63
2022/05/15 08:50:15;;;;;;;7.22;2.55;;;;;;;23.72;39.21;101851.16;5035094;28;20473;-64
2022/05/15 08:52:50;;;;;;;6.90;2.30;;;;;;;23.75;39.40;101845.56;5034942;28;20021;-62
2022/05/15 08:55:21;;;;;;;4.95;2.40;;;;;;;23.77;38.95;101843.59;5035371;28;20033;-61
2022/05/15 08:57:59;;;;;;;6.15;2.58;;;;;;;23.77;39.08;101840.94;5035783;28;20025;-61
2022/05/15 09:00:33;;;;;;;6.35;2.28;;;;;;;23.77;39.33;101843.59;5034791;28;20029;-63
2022/05/15 09:03:21;;;;;;;6.57;2.00;;;;;;;23.78;38.98;101841.75;5034768;28;20488;-63
2022/05/15 09:06:17;;;;;;;5.30;2.40;;;;;;;23.77;39.12;101840.09;5035233;28;20025;-63
2022/05/15 09:09:21;;;;;;;5.68;2.70;;;;;;;23.76;39.31;101844.56;5035296;28;20029;-63
2022/05/15 09:11:55;;;;;;;5.75;2.20;;;;;;;23.77;39.44;101834.78;5034981;28;20057;-62
2022/05/15 09:14:23;;;;;;;4.80;2.17;;;;;;;23.77;39.37;101845.41;5034464;28;20025;-62
2022/05/15 09:16:55;;;;;;;8.35;2.33;;;;;;;23.77;39.69;101843.59;5034529;28;20026;-65
2022/05/15 09:19:21;;;;;;;5.32;2.20;;;;;;;23.79;39.60;101846.09;5034435;28;20485;-65
2022/05/15 09:21:47;;;;;;;5.05;2.22;;;;;;;23.82;38.94;101851.16;5034471;28;20032;-62
2022/05/15 09:24:38;;;;;;;5.15;2.60;;;;;;;23.81;39.46;101842.31;5034578;28;20101;-62
2022/05/15 09:27:19;;;;;;;5.63;2.38;;;;;;;23.80;39.18;101838.00;5033649;28;20030;-63
2022/05/15 09:29:59;;;;;;;5.43;2.53;;;;;;;23.81;39.04;101844.97;5034434;28;20481;-63
2022/05/15 09:32:38;;;;;;;4.75;2.15;;;;;;;23.80;39.39;101840.66;5034629;28;20134;-65
2022/05/15 09:35:10;;;;;;;6.95;2.88;;;;;;;23.80;39.00;101835.31;5033676;28;20021;-65
2022/05/15 09:43:32;;;;;;;6.22;2.20;;;;;;;23.82;38.84;101835.19;5036921;28;20036;-66
2022/05/15 09:46:09;;;;;;;4.78;2.50;;;;;;;23.83;38.16;101828.88;5033954;28;20017;-67
2022/05/15 09:49:06;;;;;;;6.30;2.40;;;;;;;23.80;38.00;101827.34;5033195;28;20120;-66
2022/05/15 09:51:46;;;;;;;6.18;2.35;;;;;;;23.84;38.43;101819.94;5032194;28;20078;-66
2022/05/15 09:54:28;;;;;;;6.18;2.10;;;;;;;23.85;38.35;101818.97;5033607;28;20053;-64
2022/05/15 09:57:13;;;;;;;5.80;2.28;;;;;;;23.86;38.59;101813.50;5033397;28;20029;-66
2022/05/15 09:59:38;;;;;;;5.35;2.45;;;;;;;23.84;38.23;101804.81;5034084;28;20104;-65
2022/05/15 10:02:05;;;;;;;5.43;2.30;;;;;;;23.85;37.82;101811.81;5033318;28;20057;-65
2022/05/15 10:04:38;;;;;;;4.60;2.10;;;;;;;23.85;37.89;101818.97;5033317;28;20496;-66
2022/05/15 10:07:07;;;;;;;4.50;2.25;;;;;;;23.83;37.63;101815.56;5033293;28;20021;-65
2022/05/15 10:09:40;;;;;;;4.85;2.35;;;;;;;23.82;37.72;101825.38;5033022;28;20034;-65
2022/05/15 10:12:27;;;;;;;5.78;2.25;;;;;;;23.78;37.57;101821.28;5033551;28;20033;-65
2022/05/15 10:15:02;;;;;;;6.90;2.33;;;;;;;23.78;37.32;101807.97;5033224;28;20029;-65
2022/05/15 10:17:28;;;;;;;4.70;1.95;;;;;;;23.79;37.31;101811.50;5033112;28;20034;-66
2022/05/15 10:20:14;;;;;;;5.72;2.20;;;;;;;23.78;37.10;101802.66;5033097;28;20394;-64
2022/05/15 10:22:57;;;;;;;5.18;2.30;;;;;;;23.77;37.37;101809.00;5033357;28;20079;-66
2022/05/15 10:25:44;;;;;;;5.25;2.45;;;;;;;23.78;36.91;101799.16;5032886;28;20029;-64
2022/05/15 10:28:21;;;;;;;4.97;2.55;;;;;;;23.76;36.50;101803.81;5033027;28;20481;-65
2022/05/15 10:31:17;;;;;;;4.55;2.47;;;;;;;23.72;36.42;101797.94;5032910;28;20477;-64
2022/05/15 10:33:46;;;;;;;5.25;2.50;;;;;;;23.71;36.23;101794.41;5033572;28;20068;-64
2022/05/15 10:36:25;;;;;;;6.05;2.72;;;;;;;23.73;36.32;101786.28;5032923;28;20025;-65
2022/05/15 10:39:05;;;;;;;5.55;2.33;;;;;;;23.73;36.06;101780.97;5032676;28;20029;-65
2022/05/15 10:41:58;;;;;;;8.40;2.53;;;;;;;23.76;35.59;101787.84;5033691;28;20046;-60
2022/05/15 10:44:42;;;;;;;7.43;2.40;;;;;;;23.75;35.57;101786.13;5032383;28;20033;-64
2022/05/15 10:47:19;;;;;;;6.97;2.72;;;;;;;23.74;35.73;101772.00;5032813;28;20056;-62
2022/05/15 10:49:52;;;;;;;5.70;2.58;;;;;;;23.72;35.01;101776.63;5032908;28;20072;-64
2022/05/15 10:57:21;;;;;;;7.63;2.88;;;;;;;23.71;35.44;101769.63;5032234;28;20026;-62
2022/05/15 10:59:23;;;;;;;6.72;2.92;;;;;;;23.72;35.48;101790.78;5010202;28;20445;-63
2022/05/15 11:01:53;;;;;;;8.10;3.00;;;;;;;23.73;35.46;101778.28;5033440;28;20479;-64
2022/05/15 11:04:41;;;;;;;6.50;3.40;;;;;;;23.75;35.55;101773.69;5032881;28;20030;-65
2022/05/15 11:07:22;;;;;;;7.53;2.85;;;;;;;23.75;35.55;101775.50;5032029;28;20358;-64
2022/05/15 11:10:13;;;;;;;6.28;2.53;;;;;;;23.75;35.10;101772.84;5033046;28;20025;-64
2022/05/15 11:13:14;;;;;;;5.70;2.63;;;;;;;23.74;35.23;101772.00;5032188;28;20033;-64
2022/05/15 11:15:55;;;;;;;6.13;2.65;;;;;;;23.73;34.82;101767.66;5032846;28;20037;-64
2022/05/15 11:18:53;;;;;;;7.50;2.90;;;;;;;23.71;35.08;101772.28;5032588;28;20026;-63
2022/05/15 11:21:34;;;;;;;6.53;2.55;;;;;;;23.70;34.84;101759.94;5032295;28;20033;-64
2022/05/15 11:24:10;;;;;;;5.45;2.60;;;;;;;23.70;35.11;101757.28;5032432;28;20033;-64
2022/05/15 11:26:42;;;;;;;5.15;2.33;;;;;;;23.69;34.78;101752.97;5031885;28;20029;-63
2022/05/15 11:29:13;;;;;;;5.63;2.40;;;;;;;23.67;35.37;101741.59;5032446;28;20095;-63
2022/05/15 11:31:53;;;;;;;6.40;2.50;;;;;;;23.67;35.30;101739.78;5032923;28;20029;-62
2022/05/15 11:35:02;;;;;;;6.70;2.42;;;;;;;23.69;35.17;101742.31;5032150;28;20477;-63
2022/05/15 11:37:36;;;;;;;6.05;2.90;;;;;;;23.67;35.04;101728.28;5032315;28;20033;-63
2022/05/15 11:40:09;;;;;;;6.65;2.40;;;;;;;23.65;35.34;101722.28;5032102;28;20104;-63
2022/05/15 11:42:37;;;;;;;5.50;2.55;;;;;;;23.63;35.25;101729.56;5032045;28;20026;-63
2022/05/15 11:45:28;;;;;;;5.75;2.60;;;;;;;23.64;35.71;101712.59;5031965;28;20017;-63
2022/05/15 11:48:11;;;;;;;4.00;2.15;;;;;;;23.66;35.80;101721.31;5031428;28;20034;-62
2022/05/15 11:50:58;;;;;;;5.03;2.22;;;;;;;23.67;35.67;101702.53;5032486;28;20037;-63
2022/05/15 11:53:28;;;;;;;4.18;2.05;;;;;;;23.66;35.46;101715.97;5032134;28;20112;-63
2022/05/15 11:55:58;;;;;;;7.07;2.40;;;;;;;23.64;35.95;101709.94;5031689;28;20033;-63
2022/05/15 11:58:27;;;;;;;4.75;2.30;;;;;;;23.63;36.05;101713.59;5032451;28;20028;-63
2022/05/15 12:01:12;;;;;;;6.35;2.20;;;;;;;23.64;35.64;101700.16;5031767;28;20040;-61
2022/05/15 12:03:57;;;;;;;4.82;2.20;;;;;;;23.64;35.74;101697.50;5031812;28;20032;-63